Time;durP1;ratioP1;P1;durP2;ratioP2;P2;SDS_P1;SDS_P2;PMS_P1;PMS_P2;Temp;Humidity;BMP_temperature;BMP_pressure;BME280_temperature;BME280_humidity;BME280_pressure;Samples;Min_cycle;Max_cycle;Signal;HPM_P1;HPM_P2
2022/07/23 00:00:27;;;;;;;;;;;15.50;99.90;;;;;;5135568;27;19974;-69
2022/07/23 00:02:53;;;;;;;;;;;15.50;99.90;;;;;;5135329;27;19923;-71
2022/07/23 00:05:18;;;;;;;;;;;15.50;99.90;;;;;;5135293;27;20289;-70
2022/07/23 00:07:44;;;;;;;;;;;15.50;99.90;;;;;;5117169;27;19978;-70
2022/07/23 00:10:09;;;;;;;;;;;15.50;99.90;;;;;;5117446;27;19923;-70
2022/07/23 00:12:35;;;;;;;;;;;15.50;99.90;;;;;;5134313;27;20392;-70
2022/07/23 00:15:02;;;;;;;;;;;15.50;99.90;;;;;;5135291;27;19934;-70
2022/07/23 00:17:27;;;;;;;;;;;15.50;99.90;;;;;;5116936;27;19924;-71
2022/07/23 00:19:53;;;;;;;;;;;15.50;99.90;;;;;;5135111;27;19930;-70
2022/07/23 00:22:19;;;;;;;;;;;15.50;99.90;;;;;;5134846;27;19923;-70
2022/07/23 00:24:44;;;;;;;;;;;15.60;99.90;;;;;;5135169;27;20022;-69
2022/07/23 00:27:10;;;;;;;;;;;15.50;99.90;;;;;;5135067;27;19977;-71
2022/07/23 00:29:36;;;;;;;;;;;15.50;99.90;;;;;;5135073;27;19924;-70
2022/07/23 00:32:02;;;;;;;;;;;15.40;99.90;;;;;;5135134;27;20281;-70
2022/07/23 00:34:27;;;;;;;;;;;15.40;99.90;;;;;;5116831;27;19927;-70
2022/07/23 00:36:53;;;;;;;;;;;15.40;99.90;;;;;;5134836;27;20011;-70
2022/07/23 00:39:21;;;;;;;;;;;15.40;99.90;;;;;;5151413;27;19923;-70
2022/07/23 00:41:46;;;;;;;;;;;15.40;99.90;;;;;;5134908;27;19924;-72
2022/07/23 00:44:16;;;;;;;;;;;15.40;99.90;;;;;;5134786;27;19931;-70
2022/07/23 00:46:45;;;;;;;;;;;15.40;99.90;;;;;;5134804;27;20025;-71
2022/07/23 00:49:11;;;;;;;;;;;15.40;99.90;;;;;;5134729;27;20200;-70
2022/07/23 00:51:37;;;;;;;;;;;15.40;99.90;;;;;;5150178;27;20061;-70
2022/07/23 00:54:02;;;;;;;;;;;15.30;99.90;;;;;;5134852;27;19972;-71
2022/07/23 00:56:29;;;;;;;;;;;15.40;99.90;;;;;;5134770;27;20437;-70
2022/07/23 00:58:55;;;;;;;;;;;15.30;99.90;;;;;;5134699;28;19924;-72
2022/07/23 01:01:20;;;;;;;;;;;15.30;99.90;;;;;;5134750;28;19924;-72
2022/07/23 01:03:46;;;;;;;;;;;15.40;99.90;;;;;;5152051;27;19976;-71
2022/07/23 01:06:11;;;;;;;;;;;15.30;99.90;;;;;;5138712;27;19927;-70
2022/07/23 01:08:37;;;;;;;;;;;15.30;99.90;;;;;;5138781;27;19923;-70
2022/07/23 01:11:03;;;;;;;;;;;15.30;99.90;;;;;;5155040;27;20436;-71
2022/07/23 01:13:29;;;;;;;;;;;15.30;99.90;;;;;;5138887;27;19924;-69
2022/07/23 01:15:55;;;;;;;;;;;15.20;99.90;;;;;;5138817;27;19948;-69
2022/07/23 01:18:20;;;;;;;;;;;15.20;99.90;;;;;;5138650;27;19946;-70
2022/07/23 01:20:46;;;;;;;;;;;15.20;99.90;;;;;;5138570;27;19930;-71
2022/07/23 01:23:11;;;;;;;;;;;15.20;99.90;;;;;;5125743;27;19987;-71
2022/07/23 01:25:37;;;;;;;;;;;15.10;99.90;;;;;;5118192;28;19924;-69
2022/07/23 01:28:03;;;;;;;;;;;15.10;99.90;;;;;;5117950;28;19985;-70
2022/07/23 01:30:28;;;;;;;;;;;15.10;99.90;;;;;;5117899;28;19931;-70
2022/07/23 01:32:54;;;;;;;;;;;14.90;99.90;;;;;;5117761;28;19924;-70
2022/07/23 01:35:19;;;;;;;;;;;14.80;99.90;;;;;;5117718;28;19930;-71
2022/07/23 01:37:45;;;;;;;;;;;14.70;99.90;;;;;;5117599;28;20393;-69
2022/07/23 01:40:11;;;;;;;;;;;14.70;99.90;;;;;;5118148;28;19997;-71
2022/07/23 01:42:37;;;;;;;;;;;14.70;99.90;;;;;;5117009;28;19923;-70
2022/07/23 01:45:03;;;;;;;;;;;14.70;99.90;;;;;;5117635;28;19930;-70
2022/07/23 01:47:28;;;;;;;;;;;14.80;99.90;;;;;;5117582;28;20382;-69
2022/07/23 01:49:54;;;;;;;;;;;14.80;99.90;;;;;;5117701;28;19923;-70
2022/07/23 01:52:20;;;;;;;;;;;14.70;99.90;;;;;;5117546;28;20414;-71
2022/07/23 01:54:45;;;;;;;;;;;14.70;99.90;;;;;;5099419;28;19931;-70
2022/07/23 01:57:11;;;;;;;;;;;14.60;99.90;;;;;;5117818;28;19970;-70
2022/07/23 01:59:37;;;;;;;;;;;14.50;99.90;;;;;;5099561;28;19924;-70
2022/07/23 02:02:03;;;;;;;;;;;14.60;99.90;;;;;;5099256;28;20007;-72
2022/07/23 02:04:29;;;;;;;;;;;14.50;99.90;;;;;;5117207;28;19923;-70
2022/07/23 02:06:54;;;;;;;;;;;14.50;99.90;;;;;;5117131;28;19969;-69
2022/07/23 02:09:20;;;;;;;;;;;14.50;99.90;;;;;;5117017;28;20319;-71
2022/07/23 02:11:45;;;;;;;;;;;14.50;99.90;;;;;;5117263;28;19924;-71
2022/07/23 02:14:11;;;;;;;;;;;14.50;99.90;;;;;;5117054;28;19935;-70
2022/07/23 02:16:37;;;;;;;;;;;14.50;99.90;;;;;;5117112;28;19946;-71
2022/07/23 02:19:03;;;;;;;;;;;14.50;99.90;;;;;;5116985;28;19952;-70
2022/07/23 02:21:28;;;;;;;;;;;14.40;99.90;;;;;;5116837;28;19924;-70
2022/07/23 02:23:54;;;;;;;;;;;14.40;99.90;;;;;;5098038;28;19969;-70
2022/07/23 02:26:19;;;;;;;;;;;14.30;99.90;;;;;;5117180;28;19934;-70
2022/07/23 02:28:45;;;;;;;;;;;14.30;99.90;;;;;;5116898;28;20271;-71
2022/07/23 02:31:10;;;;;;;;;;;14.30;99.90;;;;;;5116786;28;20278;-70
2022/07/23 02:33:36;;;;;;;;;;;14.20;99.90;;;;;;5116724;28;20340;-71
2022/07/23 02:36:01;;;;;;;;;;;14.20;99.90;;;;;;5116605;28;19927;-72
2022/07/23 02:38:27;;;;;;;;;;;14.30;99.90;;;;;;5116590;28;19947;-70
2022/07/23 02:40:53;;;;;;;;;;;14.20;99.90;;;;;;5116405;28;19931;-70
2022/07/23 02:43:18;;;;;;;;;;;14.20;99.90;;;;;;5097756;28;19923;-70
2022/07/23 02:45:44;;;;;;;;;;;14.20;99.90;;;;;;5115424;28;19946;-71
2022/07/23 02:48:12;;;;;;;;;;;14.20;99.90;;;;;;5116477;28;19971;-70
2022/07/23 02:50:38;;;;;;;;;;;14.20;99.90;;;;;;5116351;28;19924;-70
2022/07/23 02:53:03;;;;;;;;;;;14.10;99.90;;;;;;5098355;28;20282;-70
2022/07/23 02:55:29;;;;;;;;;;;14.10;99.90;;;;;;5098264;28;19923;-70
2022/07/23 02:57:55;;;;;;;;;;;14.10;99.90;;;;;;5116354;28;20282;-71
2022/07/23 03:00:20;;;;;;;;;;;14.10;99.90;;;;;;5116256;28;19978;-70
2022/07/23 03:02:46;;;;;;;;;;;14.10;99.90;;;;;;5098140;28;19938;-70
2022/07/23 03:05:11;;;;;;;;;;;14.00;99.90;;;;;;5116046;28;19928;-71
2022/07/23 03:07:37;;;;;;;;;;;14.00;99.90;;;;;;5115904;28;19927;-71
2022/07/23 03:10:02;;;;;;;;;;;13.90;99.90;;;;;;5115951;28;19975;-70
2022/07/23 03:12:28;;;;;;;;;;;13.90;99.90;;;;;;5115828;28;19992;-69
2022/07/23 03:14:54;;;;;;;;;;;13.90;99.90;;;;;;5115152;28;19924;-69
2022/07/23 03:17:19;;;;;;;;;;;14.00;99.90;;;;;;5115911;28;20294;-69
2022/07/23 03:19:45;;;;;;;;;;;14.00;99.90;;;;;;5116115;28;19930;-70
2022/07/23 03:22:10;;;;;;;;;;;13.90;99.90;;;;;;5119722;27;19924;-70
2022/07/23 03:24:54;;;;;;;;;;;13.90;99.90;;;;;;5117983;27;20006;-70
2022/07/23 03:27:24;;;;;;;;;;;13.80;99.90;;;;;;5135821;27;19930;-70
2022/07/23 03:29:50;;;;;;;;;;;14.50;99.90;;;;;;5136228;27;20063;-70
2022/07/23 03:32:15;;;;;;;;;;;13.80;99.90;;;;;;5136145;27;19930;-70
2022/07/23 03:34:41;;;;;;;;;;;13.80;99.90;;;;;;5136167;27;20014;-70
2022/07/23 03:37:07;;;;;;;;;;;13.80;99.90;;;;;;5135012;27;19930;-70
2022/07/23 03:39:32;;;;;;;;;;;13.80;99.90;;;;;;5135837;27;19977;-70
2022/07/23 03:41:58;;;;;;;;;;;13.90;99.90;;;;;;5118019;27;19928;-70
2022/07/23 03:44:23;;;;;;;;;;;13.80;99.90;;;;;;5136105;27;19983;-71
2022/07/23 03:46:49;;;;;;;;;;;13.70;99.90;;;;;;5134934;27;19923;-70
2022/07/23 03:49:14;;;;;;;;;;;13.60;99.90;;;;;;5135785;27;19923;-70
2022/07/23 03:51:40;;;;;;;;;;;13.60;99.90;;;;;;5117576;27;19970;-70
2022/07/23 03:54:05;;;;;;;;;;;13.80;99.90;;;;;;5117542;27;19923;-71
2022/07/23 03:56:31;;;;;;;;;;;13.70;99.90;;;;;;5135470;27;19928;-70
2022/07/23 03:58:57;;;;;;;;;;;13.70;99.90;;;;;;5135737;27;19923;-71
2022/07/23 04:01:22;;;;;;;;;;;13.70;99.90;;;;;;5135700;27;19923;-71
2022/07/23 04:03:48;;;;;;;;;;;13.70;99.90;;;;;;5135473;27;20366;-72
2022/07/23 04:06:13;;;;;;;;;;;13.70;99.90;;;;;;5135461;27;19923;-70
2022/07/23 04:08:39;;;;;;;;;;;13.80;99.90;;;;;;5135333;27;19927;-70
2022/07/23 04:11:04;;;;;;;;;;;13.70;99.90;;;;;;5135236;27;19935;-70
2022/07/23 04:13:32;;;;;;;;;;;13.70;99.90;;;;;;5135555;27;19923;-70
2022/07/23 04:15:58;;;;;;;;;;;13.70;99.90;;;;;;5135358;27;19924;-70
2022/07/23 04:18:24;;;;;;;;;;;13.80;99.90;;;;;;5135228;27;19923;-70
2022/07/23 04:20:52;;;;;;;;;;;13.70;99.90;;;;;;5135137;27;19923;-70
2022/07/23 04:23:17;;;;;;;;;;;13.70;99.90;;;;;;5134874;27;19923;-70
2022/07/23 04:25:43;;;;;;;;;;;13.70;99.90;;;;;;5151392;27;20018;-70
2022/07/23 04:28:09;;;;;;;;;;;13.70;99.90;;;;;;5134970;27;19923;-70
2022/07/23 04:30:34;;;;;;;;;;;13.70;99.90;;;;;;5135187;27;19930;-71
2022/07/23 04:33:00;;;;;;;;;;;13.70;99.90;;;;;;5134824;27;20360;-71
2022/07/23 04:35:26;;;;;;;;;;;13.70;99.90;;;;;;5135009;27;20368;-70
2022/07/23 04:37:51;;;;;;;;;;;13.60;99.90;;;;;;5150456;27;20005;-70
2022/07/23 04:40:17;;;;;;;;;;;13.60;99.90;;;;;;5134860;27;19927;-69
2022/07/23 04:42:42;;;;;;;;;;;13.60;99.90;;;;;;5116671;27;20068;-71
2022/07/23 04:45:08;;;;;;;;;;;13.60;99.90;;;;;;5150984;27;19923;-70
2022/07/23 04:47:34;;;;;;;;;;;13.60;99.90;;;;;;5134873;27;19931;-71
2022/07/23 04:49:59;;;;;;;;;;;13.60;99.90;;;;;;5134825;27;19923;-70
2022/07/23 04:52:25;;;;;;;;;;;13.60;99.90;;;;;;5134683;27;20006;-71
2022/07/23 04:54:51;;;;;;;;;;;13.80;99.90;;;;;;5134705;27;19924;-70
2022/07/23 04:57:16;;;;;;;;;;;13.60;99.90;;;;;;5134568;27;20388;-72
2022/07/23 04:59:42;;;;;;;;;;;12.40;99.90;;;;;;5134827;28;19976;-70
2022/07/23 05:02:07;;;;;;;;;;;13.70;99.90;;;;;;5134688;28;19968;-70
2022/07/23 05:04:33;;;;;;;;;;;13.70;99.90;;;;;;5134597;28;19924;-71
2022/07/23 05:06:59;;;;;;;;;;;13.70;99.90;;;;;;5116372;28;19924;-70
2022/07/23 05:09:24;;;;;;;;;;;13.80;99.90;;;;;;5134589;28;19931;-69
2022/07/23 05:11:50;;;;;;;;;;;13.80;99.90;;;;;;5134629;28;19923;-70
2022/07/23 05:14:15;;;;;;;;;;;13.70;99.90;;;;;;5133239;28;20295;-70
2022/07/23 05:16:41;;;;;;;;;;;13.80;99.90;;;;;;5134622;28;19927;-70
2022/07/23 05:19:07;;;;;;;;;;;13.80;99.90;;;;;;5134542;28;20298;-70
2022/07/23 05:21:33;;;;;;;;;;;13.90;99.90;;;;;;5134417;28;19930;-69
2022/07/23 05:23:59;;;;;;;;;;;13.90;99.90;;;;;;5134128;28;20390;-70
2022/07/23 05:26:24;;;;;;;;;;;13.90;99.90;;;;;;5134337;28;19924;-70
2022/07/23 05:28:50;;;;;;;;;;;14.00;99.90;;;;;;5134319;28;19976;-71
2022/07/23 05:31:16;;;;;;;;;;;14.00;99.90;;;;;;5134383;28;19977;-70
2022/07/23 05:33:41;;;;;;;;;;;14.00;99.90;;;;;;5134456;28;19927;-70
2022/07/23 05:36:07;;;;;;;;;;;14.10;99.90;;;;;;5134449;28;19923;-70
2022/07/23 05:38:32;;;;;;;;;;;14.10;99.90;;;;;;5134350;28;19924;-70
2022/07/23 05:40:58;;;;;;;;;;;14.20;99.90;;;;;;5116256;28;20362;-70
2022/07/23 05:43:24;;;;;;;;;;;14.20;99.90;;;;;;5134084;28;19924;-69
2022/07/23 05:45:50;;;;;;;;;;;14.20;99.90;;;;;;5134244;28;20263;-70
2022/07/23 05:48:16;;;;;;;;;;;14.20;99.90;;;;;;5134100;28;19931;-70
2022/07/23 05:50:41;;;;;;;;;;;14.30;99.90;;;;;;5137427;27;19946;-70
2022/07/23 05:53:07;;;;;;;;;;;14.30;99.90;;;;;;5138125;27;19924;-69
2022/07/23 05:55:32;;;;;;;;;;;14.30;99.90;;;;;;5137984;27;19970;-70
2022/07/23 05:57:58;;;;;;;;;;;14.40;99.90;;;;;;5119793;27;20008;-70
2022/07/23 06:00:24;;;;;;;;;;;14.40;99.90;;;;;;5137766;27;19963;-69
2022/07/23 06:02:50;;;;;;;;;;;14.40;99.90;;;;;;5138097;27;19923;-71
2022/07/23 06:05:24;;;;;;;;;;;14.40;99.90;;;;;;5153888;27;20404;-70
2022/07/23 06:07:50;;;;;;;;;;;14.50;99.90;;;;;;5137698;27;20453;-72
2022/07/23 06:10:16;;;;;;;;;;;14.50;99.90;;;;;;5137734;27;19973;-70
2022/07/23 06:12:41;;;;;;;;;;;14.70;99.90;;;;;;5119568;27;19927;-71
2022/07/23 06:15:07;;;;;;;;;;;14.60;99.90;;;;;;5119496;27;19923;-70
2022/07/23 06:17:33;;;;;;;;;;;14.60;99.90;;;;;;5137649;27;20401;-70
2022/07/23 06:19:59;;;;;;;;;;;14.70;99.90;;;;;;5119560;27;20389;-71
2022/07/23 06:22:24;;;;;;;;;;;14.70;99.90;;;;;;5119220;27;19923;-70
2022/07/23 06:24:51;;;;;;;;;;;14.80;99.90;;;;;;5137354;27;20447;-70
2022/07/23 06:27:17;;;;;;;;;;;14.80;99.90;;;;;;5119203;27;19931;-71
2022/07/23 06:29:42;;;;;;;;;;;13.70;99.90;;;;;;5137241;27;20294;-70
2022/07/23 06:32:08;;;;;;;;;;;14.90;99.90;;;;;;5137502;27;19923;-70
2022/07/23 06:34:34;;;;;;;;;;;15.00;99.90;;;;;;5119345;27;19997;-71
2022/07/23 06:37:00;;;;;;;;;;;15.00;99.90;;;;;;5137287;27;19923;-71
2022/07/23 06:39:25;;;;;;;;;;;15.00;99.90;;;;;;5137209;27;20363;-70
2022/07/23 06:41:51;;;;;;;;;;;15.10;99.90;;;;;;5137002;27;19923;-70
2022/07/23 06:44:17;;;;;;;;;;;15.10;99.90;;;;;;5118335;27;19923;-70
2022/07/23 06:46:42;;;;;;;;;;;15.10;99.90;;;;;;5117937;27;19927;-69
2022/07/23 06:49:08;;;;;;;;;;;15.20;99.90;;;;;;5137060;27;19931;-70
2022/07/23 06:51:34;;;;;;;;;;;15.20;99.90;;;;;;5136647;27;19923;-70
2022/07/23 06:53:59;;;;;;;;;;;15.30;99.90;;;;;;5136645;27;20010;-70
2022/07/23 06:56:25;;;;;;;;;;;15.30;99.90;;;;;;5136768;27;19924;-71
2022/07/23 06:58:51;;;;;;;;;;;15.30;99.90;;;;;;5136643;27;19923;-71
2022/07/23 07:01:16;;;;;;;;;;;15.40;99.90;;;;;;5135545;27;19931;-69
2022/07/23 07:03:42;;;;;;;;;;;15.40;99.90;;;;;;5136631;27;20322;-70
2022/07/23 07:06:07;;;;;;;;;;;15.50;99.90;;;;;;5136643;27;20386;-69
2022/07/23 07:08:33;;;;;;;;;;;15.50;99.90;;;;;;5136586;27;19924;-69
2022/07/23 07:10:58;;;;;;;;;;;15.60;99.90;;;;;;5118477;27;20382;-71
2022/07/23 07:13:24;;;;;;;;;;;15.50;99.90;;;;;;5136540;27;19923;-71
2022/07/23 07:15:50;;;;;;;;;;;15.60;99.90;;;;;;5136128;27;19923;-70
2022/07/23 07:18:15;;;;;;;;;;;15.60;99.90;;;;;;5136643;27;19980;-69
2022/07/23 07:20:41;;;;;;;;;;;15.60;99.90;;;;;;5136485;27;20378;-69
2022/07/23 07:23:06;;;;;;;;;;;15.70;99.90;;;;;;5135902;27;19969;-70
2022/07/23 07:25:32;;;;;;;;;;;15.80;99.90;;;;;;5151736;27;19933;-70
2022/07/23 07:27:57;;;;;;;;;;;15.80;99.90;;;;;;5152469;27;19999;-70
2022/07/23 07:30:23;;;;;;;;;;;15.90;99.90;;;;;;5117954;27;19924;-70
2022/07/23 07:32:48;;;;;;;;;;;15.90;99.90;;;;;;5136335;27;19930;-69
2022/07/23 07:35:14;;;;;;;;;;;16.00;99.90;;;;;;5136172;27;20370;-71
2022/07/23 07:37:39;;;;;;;;;;;16.00;99.90;;;;;;5136041;27;19946;-70
2022/07/23 07:40:05;;;;;;;;;;;16.00;99.90;;;;;;5135875;27;20297;-71
2022/07/23 07:42:32;;;;;;;;;;;16.00;99.90;;;;;;5135980;27;19931;-71
2022/07/23 07:44:57;;;;;;;;;;;16.10;99.90;;;;;;5151391;27;19931;-70
2022/07/23 07:47:23;;;;;;;;;;;16.10;99.90;;;;;;5117668;27;19923;-70
2022/07/23 07:49:48;;;;;;;;;;;16.10;99.90;;;;;;5135932;27;19923;-70
2022/07/23 07:52:14;;;;;;;;;;;16.10;99.90;;;;;;5117573;27;20286;-70
2022/07/23 07:54:40;;;;;;;;;;;16.10;99.90;;;;;;5117752;27;19923;-70
2022/07/23 07:57:05;;;;;;;;;;;16.20;99.90;;;;;;5151591;27;20354;-71
2022/07/23 07:59:31;;;;;;;;;;;16.20;99.90;;;;;;5117530;27;20531;-70
2022/07/23 08:01:56;;;;;;;;;;;16.20;99.90;;;;;;5135547;27;19924;-70
2022/07/23 08:04:22;;;;;;;;;;;16.80;99.90;;;;;;5116863;27;19935;-71
2022/07/23 08:06:47;;;;;;;;;;;16.30;99.90;;;;;;5117484;27;19974;-70
2022/07/23 08:09:16;;;;;;;;;;;16.30;99.90;;;;;;5135478;27;19923;-72
2022/07/23 08:11:41;;;;;;;;;;;16.40;99.90;;;;;;5135339;27;20397;-70
2022/07/23 08:14:07;;;;;;;;;;;16.40;99.90;;;;;;5117140;27;20324;-70
2022/07/23 08:16:33;;;;;;;;;;;16.40;99.90;;;;;;5117162;27;19974;-70
2022/07/23 08:18:58;;;;;;;;;;;16.50;99.90;;;;;;5135121;27;20361;-70
2022/07/23 08:21:24;;;;;;;;;;;16.80;99.90;;;;;;5135394;27;19933;-71
2022/07/23 08:23:49;;;;;;;;;;;16.50;99.90;;;;;;5135074;27;19923;-71
2022/07/23 08:26:15;;;;;;;;;;;16.60;99.90;;;;;;5134950;27;19984;-70
2022/07/23 08:28:40;;;;;;;;;;;16.60;99.90;;;;;;5135123;27;19923;-70
2022/07/23 08:31:06;;;;;;;;;;;16.70;99.90;;;;;;5134036;27;19974;-71
2022/07/23 08:33:32;;;;;;;;;;;16.70;99.90;;;;;;5134866;27;20339;-70
2022/07/23 08:35:58;;;;;;;;;;;16.70;99.90;;;;;;5135026;27;20323;-71
2022/07/23 08:38:25;;;;;;;;;;;16.80;99.90;;;;;;5116963;27;19924;-71
2022/07/23 08:40:51;;;;;;;;;;;16.80;99.90;;;;;;5135106;27;19930;-72
2022/07/23 08:43:20;;;;;;;;;;;16.80;99.90;;;;;;5150182;27;20013;-72
2022/07/23 08:45:48;;;;;;;;;;;16.90;99.90;;;;;;5134564;27;20014;-73
2022/07/23 08:48:15;;;;;;;;;;;17.00;99.90;;;;;;5134799;27;19974;-70
2022/07/23 08:50:42;;;;;;;;;;;17.00;99.90;;;;;;5134882;27;19931;-71
2022/07/23 08:53:08;;;;;;;;;;;17.10;99.90;;;;;;5134767;27;19930;-73
2022/07/23 08:55:34;;;;;;;;;;;17.20;99.90;;;;;;5134794;27;20014;-71
2022/07/23 08:58:00;;;;;;;;;;;17.20;99.90;;;;;;5134624;27;19930;-71
2022/07/23 09:00:25;;;;;;;;;;;17.20;99.90;;;;;;5134826;28;19924;-69
2022/07/23 09:02:51;;;;;;;;;;;17.20;99.90;;;;;;5134469;28;19923;-70
2022/07/23 09:05:17;;;;;;;;;;;17.20;99.90;;;;;;5134470;28;19975;-73
2022/07/23 09:08:01;;;;;;;;;;;17.20;99.90;;;;;;5116665;28;19923;-72
2022/07/23 09:10:26;;;;;;;;;;;17.20;99.90;;;;;;5134517;28;20374;-70
2022/07/23 09:12:52;;;;;;;;;;;17.10;99.90;;;;;;5116319;28;19928;-71
2022/07/23 09:15:17;;;;;;;;;;;17.20;99.90;;;;;;5134399;28;19923;-72
2022/07/23 09:17:43;;;;;;;;;;;17.20;99.90;;;;;;5134411;28;19923;-71
2022/07/23 09:20:14;;;;;;;;;;;17.30;99.90;;;;;;5134610;28;19923;-72
2022/07/23 09:22:46;;;;;;;;;;;17.40;99.90;;;;;;5134231;28;19923;-69
2022/07/23 09:25:16;;;;;;;;;;;17.40;99.90;;;;;;5135375;27;19984;-70
2022/07/23 09:28:08;;;;;;;;;;;17.50;99.90;;;;;;5138554;27;19927;-71
2022/07/23 09:30:37;;;;;;;;;;;17.50;99.90;;;;;;5151809;27;19976;-71
2022/07/23 09:33:10;;;;;;;;;;;17.50;99.90;;;;;;5150559;27;19955;-71
2022/07/23 09:35:46;;;;;;;;;;;17.60;99.90;;;;;;5156601;27;19923;-71
2022/07/23 09:38:12;;;;;;;;;;;17.60;99.90;;;;;;5179866;27;19922;-71
2022/07/23 09:40:37;;;;;;;;;;;17.70;99.90;;;;;;5179811;27;20266;-71
2022/07/23 09:43:03;;;;;;;;;;;17.80;99.90;;;;;;5179522;27;19923;-71
2022/07/23 09:45:28;;;;;;;;;;;17.80;99.90;;;;;;5179899;27;19970;-70
2022/07/23 09:48:09;;;;;;;;;;;17.90;99.90;;;;;;5179878;27;20392;-71
2022/07/23 09:50:35;;;;;;;;;;;18.00;99.90;;;;;;5161447;27;19927;-71
2022/07/23 09:53:00;;;;;;;;;;;18.00;99.90;;;;;;5161210;27;19951;-72
2022/07/23 09:55:34;;;;;;;;;;;18.00;99.90;;;;;;5161191;27;19922;-71
2022/07/23 09:58:00;;;;;;;;;;;18.00;99.90;;;;;;5179732;27;20013;-71
2022/07/23 10:00:27;;;;;;;;;;;18.00;99.90;;;;;;5179643;27;20413;-69
2022/07/23 10:02:53;;;;;;;;;;;18.00;99.90;;;;;;5195697;27;20403;-71
2022/07/23 10:05:19;;;;;;;;;;;18.10;99.90;;;;;;5179422;27;19930;-71
2022/07/23 10:07:45;;;;;;;;;;;18.20;99.90;;;;;;5179262;27;19975;-71
2022/07/23 10:10:11;;;;;;;;;;;18.20;99.90;;;;;;5179249;27;20307;-69
2022/07/23 10:15:22;;;;;;;;;;;18.20;99.90;;;;;;5179232;27;20104;-71
2022/07/23 10:17:48;;;;;;;;;;;18.30;99.90;;;;;;5179381;27;20377;-71
2022/07/23 10:20:13;;;;;;;;;;;18.30;99.90;;;;;;5179270;27;20288;-70
2022/07/23 10:22:48;;;;;;;;;;;18.40;99.90;;;;;;5172680;27;19930;-70
2022/07/23 10:25:23;;;;;;;;;;;18.50;99.90;;;;;;5139740;27;20010;-71
2022/07/23 10:27:48;;;;;;;;;;;18.50;99.90;;;;;;5157980;27;20377;-72
2022/07/23 10:30:42;;;;;;;;;;;18.60;99.90;;;;;;5158167;27;19976;-71
2022/07/23 10:33:26;;;;;;;;;;;18.60;99.90;;;;;;5135310;27;19965;-70
2022/07/23 10:36:07;;;;;;;;;;;18.60;99.90;;;;;;5156741;27;19923;-72
2022/07/23 10:38:37;;;;;;;;;;;18.60;99.90;;;;;;5157683;27;20342;-71
2022/07/23 10:41:04;;;;;;;;;;;18.60;99.90;;;;;;5157866;27;19930;-72
2022/07/23 10:43:30;;;;;;;;;;;18.60;99.90;;;;;;5157689;27;20456;-72
2022/07/23 10:46:16;;;;;;;;;;;18.50;99.90;;;;;;5139324;27;19930;-73
2022/07/23 10:48:41;;;;;;;;;;;18.50;99.90;;;;;;5157622;27;19925;-70
2022/07/23 10:51:07;;;;;;;;;;;18.50;99.90;;;;;;5157715;27;20346;-71
2022/07/23 10:53:51;;;;;;;;;;;18.40;99.90;;;;;;5157599;27;19930;-72
2022/07/23 10:56:37;;;;;;;;;;;18.40;99.90;;;;;;5157489;27;20015;-71
2022/07/23 10:59:05;;;;;;;;;;;18.40;99.90;;;;;;5036758;28;20391;-71
2022/07/23 11:01:31;;;;;;;;;;;18.40;99.90;;;;;;5053273;28;20311;-70
2022/07/23 11:03:58;;;;;;;;;;;18.50;99.90;;;;;;5053283;28;20387;-71
2022/07/23 11:06:24;;;;;;;;;;;18.60;99.90;;;;;;5053229;28;19925;-71
2022/07/23 11:09:09;;;;;;;;;;;18.60;99.90;;;;;;5053210;28;20491;-71
2022/07/23 11:11:35;;;;;;;;;;;18.70;99.90;;;;;;5051923;28;19925;-70
2022/07/23 11:14:00;;;;;;;;;;;18.70;99.90;;;;;;5017330;28;20300;-70
2022/07/23 11:16:26;;;;;;;;;;;18.70;99.90;;;;;;5050010;28;19991;-71
2022/07/23 11:18:55;;;;;;;;;;;18.80;99.90;;;;;;5016434;28;19966;-70
2022/07/23 11:21:21;;;;;;;;;;;18.90;99.90;;;;;;5033069;28;19925;-71
2022/07/23 11:24:06;;;;;;;;;;;18.90;99.90;;;;;;5065543;28;19925;-71
2022/07/23 11:26:37;;;;;;;;;;;19.00;99.90;;;;;;5051588;28;19929;-71
2022/07/23 11:29:21;;;;;;;;;;;18.90;99.90;;;;;;5052845;28;19932;-70
2022/07/23 11:31:53;;;;;;;;;;;18.90;99.90;;;;;;5052186;28;20336;-72
2022/07/23 11:34:37;;;;;;;;;;;18.90;99.90;;;;;;5052781;28;20327;-72
2022/07/23 11:37:03;;;;;;;;;;;18.90;99.90;;;;;;5107862;28;19990;-69
2022/07/23 11:39:30;;;;;;;;;;;18.80;99.90;;;;;;5115457;28;19975;-70
2022/07/23 11:41:56;;;;;;;;;;;18.80;99.90;;;;;;5131323;27;19924;-70
2022/07/23 11:44:30;;;;;;;;;;;18.80;99.90;;;;;;5115150;28;20380;-72
2022/07/23 11:46:59;;;;;;;;;;;18.80;99.90;;;;;;5114717;28;19924;-70
2022/07/23 11:49:25;;;;;;;;;;;18.90;99.90;;;;;;5115343;28;19924;-70
2022/07/23 11:52:10;;;;;;;;;;;19.00;99.90;;;;;;5097137;28;19924;-70
2022/07/23 11:54:46;;;;;;;;;;;18.80;99.90;;;;;;5114436;28;19967;-71
2022/07/23 11:57:11;;;;;;;;;;;18.80;99.90;;;;;;5114735;28;19969;-72
2022/07/23 11:59:38;;;;;;;;;;;18.80;99.90;;;;;;5079167;28;20336;-71
2022/07/23 12:02:05;;;;;;;;;;;18.80;99.90;;;;;;5130011;27;19923;-74
2022/07/23 12:04:41;;;;;;;;;;;18.80;99.90;;;;;;5130662;27;19924;-70
2022/07/23 12:07:25;;;;;;;;;;;18.80;99.90;;;;;;5114689;28;20486;-72
2022/07/23 12:09:51;;;;;;;;;;;18.90;99.90;;;;;;5114481;28;19982;-70
2022/07/23 12:12:16;;;;;;;;;;;18.90;99.90;;;;;;5096465;28;19971;-70
2022/07/23 12:14:55;;;;;;;;;;;18.90;99.90;;;;;;5096357;28;19971;-71
2022/07/23 12:17:21;;;;;;;;;;;18.90;99.90;;;;;;5114567;28;20372;-69
2022/07/23 12:19:47;;;;;;;;;;;18.90;99.90;;;;;;5114590;28;19976;-72
2022/07/23 12:22:16;;;;;;;;;;;18.90;99.90;;;;;;5097782;27;19923;-71
2022/07/23 12:24:53;;;;;;;;;;;18.90;99.90;;;;;;5149856;27;21222;-70
2022/07/23 12:27:22;;;;;;;;;;;18.90;99.90;;;;;;5133055;27;19939;-71
2022/07/23 12:29:48;;;;;;;;;;;18.80;99.90;;;;;;5151199;27;19923;-70
2022/07/23 12:32:27;;;;;;;;;;;18.90;99.90;;;;;;5134712;27;19928;-70
2022/07/23 12:35:05;;;;;;;;;;;18.80;99.90;;;;;;5134628;27;20049;-71
2022/07/23 12:37:33;;;;;;;;;;;18.80;99.90;;;;;;5134866;27;20374;-69
2022/07/23 12:40:18;;;;;;;;;;;18.80;99.90;;;;;;5134535;27;19927;-71
2022/07/23 12:42:44;;;;;;;;;;;18.70;99.90;;;;;;5116727;27;19923;-73
2022/07/23 12:45:11;;;;;;;;;;;18.70;99.90;;;;;;5134395;27;20393;-70
2022/07/23 12:47:55;;;;;;;;;;;18.70;99.90;;;;;;5134406;27;19948;-70
2022/07/23 12:50:36;;;;;;;;;;;18.70;99.90;;;;;;5134757;27;19923;-73
2022/07/23 12:53:05;;;;;;;;;;;18.80;99.90;;;;;;5150894;27;19927;-69
2022/07/23 12:55:30;;;;;;;;;;;18.90;99.90;;;;;;5133687;27;19923;-70
2022/07/23 12:58:04;;;;;;;;;;;19.00;99.90;;;;;;5134369;27;20278;-71
2022/07/23 13:00:30;;;;;;;;;;;19.00;99.90;;;;;;5133628;27;20014;-73
2022/07/23 13:02:56;;;;;;;;;;;19.10;99.90;;;;;;5134587;28;19974;-72
2022/07/23 13:05:22;;;;;;;;;;;19.20;99.90;;;;;;5134719;28;20290;-73
2022/07/23 13:07:47;;;;;;;;;;;19.30;99.90;;;;;;5134331;28;19930;-74
2022/07/23 13:10:13;;;;;;;;;;;19.30;99.90;;;;;;5116181;28;19968;-71
2022/07/23 13:12:38;;;;;;;;;;;19.30;99.90;;;;;;5134425;28;20018;-71
2022/07/23 13:15:06;;;;;;;;;;;19.30;99.90;;;;;;5134102;28;19942;-71
2022/07/23 13:17:31;;;;;;;;;;;19.40;99.90;;;;;;5134533;28;19930;-70
2022/07/23 13:19:57;;;;;;;;;;;19.40;99.90;;;;;;5150475;27;19924;-70
2022/07/23 13:22:22;;;;;;;;;;;19.40;99.90;;;;;;5133747;28;20014;-72
2022/07/23 13:24:48;;;;;;;;;;;19.40;99.90;;;;;;5134011;28;19989;-72
2022/07/23 13:27:14;;;;;;;;;;;19.50;99.90;;;;;;5134162;28;19924;-71
2022/07/23 13:29:39;;;;;;;;;;;19.50;99.90;;;;;;5134113;28;20263;-71
2022/07/23 13:32:05;;;;;;;;;;;19.60;99.90;;;;;;5134072;28;20034;-70
2022/07/23 13:34:30;;;;;;;;;;;19.70;99.90;;;;;;5133853;28;20315;-71
2022/07/23 13:36:56;;;;;;;;;;;19.70;99.90;;;;;;5115783;28;19924;-74
2022/07/23 13:39:22;;;;;;;;;;;19.80;99.90;;;;;;5133831;28;20364;-70
2022/07/23 13:41:47;;;;;;;;;;;19.80;99.90;;;;;;5134151;28;20013;-72
2022/07/23 13:44:13;;;;;;;;;;;19.90;99.90;;;;;;5115727;28;19976;-72
2022/07/23 13:46:39;;;;;;;;;;;19.90;99.90;;;;;;5133922;28;19923;-72
2022/07/23 13:49:04;;;;;;;;;;;20.00;99.90;;;;;;5134181;28;19927;-70
2022/07/23 13:51:30;;;;;;;;;;;20.00;99.90;;;;;;5134103;28;19971;-73
2022/07/23 13:53:59;;;;;;;;;;;19.90;99.90;;;;;;5115910;28;20362;-74
2022/07/23 13:56:24;;;;;;;;;;;19.90;99.90;;;;;;5115815;28;20399;-72
2022/07/23 13:58:50;;;;;;;;;;;19.80;99.90;;;;;;5133885;28;19923;-71
2022/07/23 14:01:16;;;;;;;;;;;19.80;99.90;;;;;;5133840;28;19930;-72
2022/07/23 14:03:41;;;;;;;;;;;19.90;99.90;;;;;;5133941;28;19923;-71
2022/07/23 14:06:07;;;;;;;;;;;19.90;99.90;;;;;;5115811;28;19991;-71
2022/07/23 14:08:33;;;;;;;;;;;19.90;99.90;;;;;;5115522;28;19923;-72
2022/07/23 14:10:59;;;;;;;;;;;20.00;99.90;;;;;;5135731;27;19923;-73
2022/07/23 14:13:25;;;;;;;;;;;20.00;99.90;;;;;;5137493;27;19924;-71
2022/07/23 14:15:51;;;;;;;;;;;20.00;99.90;;;;;;5137071;27;20293;-72
2022/07/23 14:18:16;;;;;;;;;;;20.00;99.90;;;;;;5119684;27;20014;-73